Time;durP1;ratioP1;P1;durP2;ratioP2;P2;SDS_P1;SDS_P2;PMS_P1;PMS_P2;Temp;Humidity;BMP_temperature;BMP_pressure;BME280_temperature;BME280_humidity;BME280_pressure;Samples;Min_cycle;Max_cycle;Signal;HPM_P1;HPM_P2
2022/03/23 00:01:55;;;;;;;;;73.00;54.75;;;;;12.38;46.16;102477.72;5062449;28;45235;-59
2022/03/23 00:04:21;;;;;;;;;67.50;52.50;;;;;12.35;45.85;102480.34;5061942;28;45503;-59
2022/03/23 00:06:46;;;;;;;;;77.25;55.25;;;;;12.29;46.51;102469.97;5062020;28;46296;-60
2022/03/23 00:09:14;;;;;;;;;78.25;57.75;;;;;12.23;46.39;102463.94;5061393;28;45213;-59
2022/03/23 00:11:40;;;;;;;;;66.75;54.00;;;;;12.22;46.81;102477.84;5062107;28;45314;-59
2022/03/23 00:14:06;;;;;;;;;78.00;56.25;;;;;12.17;46.85;102481.31;5061907;28;45523;-60
2022/03/23 00:16:34;;;;;;;;;72.50;51.50;;;;;12.16;47.25;102491.75;5059810;28;46996;-59
2022/03/23 00:18:59;;;;;;;;;74.75;54.75;;;;;12.11;46.78;102486.59;5048852;28;45251;-59
2022/03/23 00:21:25;;;;;;;;;81.00;57.00;;;;;12.09;46.96;102487.47;5052765;28;45531;-60
2022/03/23 00:23:50;;;;;;;;;73.00;53.00;;;;;12.04;47.31;102487.50;5061641;28;45465;-60
2022/03/23 00:26:15;;;;;;;;;78.25;54.50;;;;;12.02;47.50;102494.47;5042668;28;46924;-60
2022/03/23 00:28:41;;;;;;;;;75.25;53.75;;;;;11.95;47.59;102484.06;5053116;28;45474;-60
2022/03/23 00:31:08;;;;;;;;;73.75;55.00;;;;;11.94;47.36;102490.16;5045029;28;46042;-60
2022/03/23 00:33:34;;;;;;;;;76.00;53.00;;;;;11.88;47.69;102499.75;5043440;28;45481;-60
2022/03/23 00:36:00;;;;;;;;;75.25;56.75;;;;;11.88;47.74;102496.28;5054846;28;46002;-60
2022/03/23 00:38:26;;;;;;;;;78.25;55.00;;;;;11.84;47.88;102491.94;5042033;28;45574;-60
2022/03/23 00:40:52;;;;;;;;;70.25;52.75;;;;;11.80;47.97;102493.69;5061610;28;45246;-59
2022/03/23 00:43:17;;;;;;;;;75.25;53.00;;;;;11.76;47.84;102494.53;5061423;28;45506;-60
2022/03/23 00:45:43;;;;;;;;;77.75;54.25;;;;;11.73;47.93;102493.69;5058964;28;45366;-59
2022/03/23 00:48:08;;;;;;;;;74.25;54.25;;;;;11.67;48.19;102499.81;5058776;28;45632;-59
2022/03/23 00:50:34;;;;;;;;;76.50;54.25;;;;;11.66;48.02;102497.22;5059156;28;45418;-59
2022/03/23 00:52:59;;;;;;;;;71.75;53.75;;;;;11.60;48.25;102503.28;5058840;28;45257;-59
2022/03/23 00:55:25;;;;;;;;;71.50;53.25;;;;;11.54;48.36;102496.38;5058411;28;46236;-58
2022/03/23 00:57:50;;;;;;;;;68.50;53.00;;;;;11.49;48.58;102497.25;5058099;28;45557;-59
2022/03/23 01:00:22;;;;;;;;;71.50;52.00;;;;;11.47;48.25;102493.78;5060366;28;45305;-60
2022/03/23 01:02:47;;;;;;;;;76.25;54.75;;;;;11.43;48.57;102500.75;5061015;28;45489;-59
2022/03/23 01:05:13;;;;;;;;;61.00;42.50;;;;;11.38;48.99;102497.28;5061285;28;45306;-59
2022/03/23 01:07:40;;;;;;;;;71.25;49.50;;;;;11.36;49.04;102495.56;5060942;28;45305;-62
2022/03/23 01:10:07;;;;;;;;;72.00;52.25;;;;;11.34;49.14;102505.09;5061239;28;45399;-59
2022/03/23 01:12:34;;;;;;;;;73.75;54.00;;;;;11.28;49.23;102499.06;5060858;28;45521;-58
2022/03/23 01:14:59;;;;;;;;;75.25;53.75;;;;;11.25;49.71;102495.59;5060785;28;45522;-60
2022/03/23 01:17:25;;;;;;;;;75.25;52.50;;;;;11.24;49.57;102501.66;5060650;28;45331;-59
2022/03/23 01:19:51;;;;;;;;;79.00;55.75;;;;;11.22;49.41;102498.22;5031604;28;45727;-59
2022/03/23 01:22:17;;;;;;;;;76.25;55.25;;;;;11.17;49.44;102499.94;5058614;28;45306;-59
2022/03/23 01:24:45;;;;;;;;;65.75;50.50;;;;;11.13;50.46;102493.88;5060553;28;46347;-59
2022/03/23 01:27:11;;;;;;;;;73.75;54.50;;;;;11.08;50.58;102494.75;5060492;28;45691;-59
2022/03/23 01:29:37;;;;;;;;;70.50;50.50;;;;;11.06;50.65;102491.28;5048263;28;45211;-59
2022/03/23 01:32:03;;;;;;;;;72.00;55.75;;;;;11.02;49.71;102494.78;5059013;28;45586;-59
2022/03/23 01:34:29;;;;;;;;;73.25;52.75;;;;;10.97;50.44;102490.41;5060472;28;47120;-59
2022/03/23 01:36:54;;;;;;;;;75.00;54.75;;;;;10.94;50.28;102487.81;5059873;28;45269;-59
2022/03/23 01:39:19;;;;;;;;;76.50;57.50;;;;;10.90;50.42;102488.69;5060417;28;45439;-59
2022/03/23 01:41:45;;;;;;;;;60.00;50.50;;;;;10.87;50.31;102493.03;5060351;28;45254;-59
2022/03/23 01:44:23;;;;;;;;;79.50;53.00;;;;;10.82;50.50;102493.06;5060320;28;45331;-59
2022/03/23 01:47:00;;;;;;;;;73.75;53.00;;;;;10.79;50.47;102497.34;5060252;28;45731;-59
2022/03/23 01:49:26;;;;;;;;;77.50;56.75;;;;;10.77;50.76;102491.28;5060383;28;45232;-59
2022/03/23 01:51:51;;;;;;;;;77.25;52.75;;;;;10.73;50.92;102486.97;5060276;28;45200;-59
2022/03/23 01:54:17;;;;;;;;;70.00;49.50;;;;;10.71;50.60;102484.38;5059523;28;45459;-59
2022/03/23 01:56:42;;;;;;;;;61.67;50.33;;;;;10.65;50.98;102482.66;5059710;28;45458;-59
2022/03/23 01:59:10;;;;;;;;;73.75;55.25;;;;;10.66;50.96;102481.78;5060142;28;45322;-59
2022/03/23 02:01:38;;;;;;;;;73.00;52.25;;;;;10.63;50.90;102479.19;5060026;28;45545;-58
2022/03/23 02:04:03;;;;;;;;;68.25;51.75;;;;;10.62;51.09;102486.97;5059833;28;46357;-58
2022/03/23 02:06:28;;;;;;;;;75.00;54.25;;;;;10.58;51.42;102480.03;5060006;28;45474;-57
2022/03/23 02:08:54;;;;;;;;;74.25;53.00;;;;;10.56;51.84;102484.34;5059897;28;45208;-57
2022/03/23 02:11:19;;;;;;;;;63.75;47.75;;;;;10.54;51.91;102480.91;5059848;28;45585;-57
2022/03/23 02:13:45;;;;;;;;;71.75;54.75;;;;;10.52;52.26;102480.03;5059657;28;46754;-58
2022/03/23 02:16:10;;;;;;;;;70.50;52.25;;;;;10.49;51.90;102480.91;5059727;28;45253;-58
2022/03/23 02:18:36;;;;;;;;;74.25;54.00;;;;;10.48;51.83;102483.50;5059300;28;45227;-58
2022/03/23 02:21:01;;;;;;;;;75.00;53.00;;;;;10.47;52.04;102484.38;5048369;28;45399;-58
2022/03/23 02:23:26;;;;;;;;;79.50;55.25;;;;;10.48;51.60;102486.09;5059624;28;45260;-58
2022/03/23 02:26:00;;;;;;;;;67.50;43.75;;;;;10.47;51.69;102482.63;5059466;28;45283;-58
2022/03/23 02:28:27;;;;;;;;;75.25;53.50;;;;;10.45;51.69;102471.38;5057802;28;45509;-57
2022/03/23 02:30:53;;;;;;;;;68.50;51.50;;;;;10.45;51.53;102475.69;5048074;28;45495;-58
2022/03/23 02:33:20;;;;;;;;;66.50;50.75;;;;;10.44;51.86;102479.16;5059204;28;46401;-60
2022/03/23 02:35:48;;;;;;;;;69.00;53.25;;;;;10.43;51.63;102475.72;5059620;28;45468;-58
2022/03/23 02:38:14;;;;;;;;;69.00;51.00;;;;;10.42;51.99;102480.91;5059159;28;45257;-59
2022/03/23 02:40:39;;;;;;;;;67.75;51.25;;;;;10.40;51.72;102485.22;5059612;28;45304;-58
2022/03/23 02:43:04;;;;;;;;;59.75;45.50;;;;;10.40;52.26;102478.28;5059472;28;45394;-58
2022/03/23 02:45:30;;;;;;;;;71.67;50.00;;;;;10.37;51.84;102480.88;5059469;28;45222;-58
2022/03/23 02:47:56;;;;;;;;;70.25;51.00;;;;;10.36;52.38;102480.00;5059476;28;45287;-58
2022/03/23 02:50:22;;;;;;;;;68.75;51.75;;;;;10.34;52.14;102480.88;5059449;28;45259;-58
2022/03/23 03:03:52;;;;;;;;;64.00;44.50;;;;;10.29;50.88;102488.66;5059223;28;45368;-58
2022/03/23 03:06:17;;;;;;;;;40.75;26.50;;;;;10.32;49.58;102493.00;5058980;28;45320;-58
2022/03/23 03:08:45;;;;;;;;;39.75;30.50;;;;;10.36;49.25;102493.00;5059480;28;45399;-58
2022/03/23 03:11:11;;;;;;;;;44.25;34.25;;;;;10.44;48.59;102495.63;5058841;28;45312;-58
2022/03/23 03:13:38;;;;;;;;;46.50;38.50;;;;;10.51;47.97;102491.28;5059275;28;45379;-58
2022/03/23 03:16:03;;;;;;;;;35.00;29.75;;;;;10.56;47.66;102498.22;5058987;28;45421;-58
2022/03/23 03:18:34;;;;;;;;;41.50;32.75;;;;;10.61;47.26;102500.81;5059123;28;45303;-58
2022/03/23 03:21:09;;;;;;;;;31.50;29.00;;;;;10.66;46.36;102509.50;5048902;28;45220;-58
2022/03/23 03:23:43;;;;;;;;;33.75;29.25;;;;;10.69;46.25;102509.50;5058618;28;46241;-58
2022/03/23 03:26:09;;;;;;;;;36.25;26.50;;;;;10.71;46.11;102506.91;5058352;28;45880;-58
2022/03/23 03:28:36;;;;;;;;;28.25;24.50;;;;;10.72;45.75;102512.09;5053041;28;45522;-58
2022/03/23 03:31:10;;;;;;;;;29.75;25.00;;;;;10.74;45.94;102519.91;5045595;28;45414;-58
2022/03/23 03:33:35;;;;;;;;;33.50;27.50;;;;;10.74;45.74;102518.16;5046494;28;46629;-58
2022/03/23 03:36:01;;;;;;;;;36.50;29.75;;;;;10.75;45.04;102516.44;5046842;28;45451;-58
2022/03/23 03:38:27;;;;;;;;;36.00;28.75;;;;;10.77;44.94;102527.69;5043720;28;45442;-58
2022/03/23 03:40:54;;;;;;;;;41.25;33.50;;;;;10.76;44.62;102528.56;5048902;28;45497;-58
2022/03/23 03:43:19;;;;;;;;;31.25;24.25;;;;;10.75;44.68;102519.03;5056189;28;46885;-58
2022/03/23 03:45:45;;;;;;;;;27.75;24.50;;;;;10.76;44.55;102520.75;5058775;28;45577;-59
2022/03/23 03:48:11;;;;;;;;;34.75;26.75;;;;;10.76;44.72;102526.84;5059802;28;45447;-59
2022/03/23 03:50:36;;;;;;;;;41.25;31.25;;;;;10.71;44.91;102520.78;5041825;28;45547;-59
2022/03/23 03:53:01;;;;;;;;;26.00;21.25;;;;;10.75;44.35;102529.44;5060407;28;45379;-58
2022/03/23 03:55:27;;;;;;;;;30.75;27.25;;;;;10.73;44.53;102529.44;5061842;28;45522;-59
2022/03/23 03:57:52;;;;;;;;;30.75;27.75;;;;;10.72;44.62;102526.84;5043830;28;45985;-59
2022/03/23 04:00:19;;;;;;;;;33.25;26.75;;;;;10.71;44.22;102538.97;5061881;28;45268;-60
2022/03/23 04:02:44;;;;;;;;;32.50;28.25;;;;;10.69;44.01;102527.72;5061719;28;46324;-59
2022/03/23 04:05:10;;;;;;;;;31.75;29.50;;;;;10.66;44.16;102525.97;5062050;28;45246;-59
2022/03/23 04:07:35;;;;;;;;;35.25;22.50;;;;;10.68;44.14;102533.78;5061816;28;45245;-59
2022/03/23 04:10:05;;;;;;;;;16.25;14.00;;;;;10.68;43.91;102532.91;5061895;28;45387;-59
2022/03/23 04:12:31;;;;;;;;;30.00;22.25;;;;;10.64;43.90;102535.50;5061551;28;45391;-59
2022/03/23 04:14:56;;;;;;;;;32.50;24.25;;;;;10.62;44.28;102532.03;5061359;28;45328;-59
2022/03/23 04:17:21;;;;;;;;;33.75;24.75;;;;;10.62;43.78;102538.97;5061586;28;45489;-59
2022/03/23 04:19:47;;;;;;;;;32.00;27.25;;;;;10.60;43.47;102540.69;5061936;28;45430;-59
2022/03/23 04:22:12;;;;;;;;;29.00;25.75;;;;;10.60;43.47;102551.09;5060985;28;45911;-59
2022/03/23 04:24:38;;;;;;;;;27.75;26.75;;;;;10.59;43.58;102544.16;5061498;28;45243;-59
2022/03/23 04:27:05;;;;;;;;;29.75;28.50;;;;;10.57;43.44;102556.28;5061563;28;45380;-59
2022/03/23 04:29:30;;;;;;;;;30.25;26.25;;;;;10.55;43.44;102553.69;5050293;28;45364;-59
2022/03/23 04:31:56;;;;;;;;;31.75;23.50;;;;;10.54;43.81;102554.56;5058739;28;45481;-58
2022/03/23 04:34:21;;;;;;;;;28.50;26.25;;;;;10.53;43.65;102551.94;5061646;28;45427;-58
2022/03/23 04:36:46;;;;;;;;;25.25;19.25;;;;;10.52;43.24;102550.22;5061187;28;45232;-58
2022/03/23 04:39:12;;;;;;;;;32.25;24.00;;;;;10.51;43.73;102551.09;5061162;28;45203;-59
2022/03/23 04:41:37;;;;;;;;;30.00;25.50;;;;;10.50;43.34;102560.63;5060956;28;45415;-59
2022/03/23 04:44:03;;;;;;;;;30.00;24.00;;;;;10.48;43.47;102557.16;5061449;28;45347;-59
2022/03/23 04:46:28;;;;;;;;;33.00;28.00;;;;;10.46;43.33;102564.06;5061173;28;45391;-59
2022/03/23 04:48:53;;;;;;;;;26.00;22.25;;;;;10.43;43.11;102558.88;5061377;28;45356;-59
2022/03/23 04:51:19;;;;;;;;;31.25;24.75;;;;;10.46;43.30;102568.41;5060996;28;45413;-59
2022/03/23 04:53:44;;;;;;;;;25.50;25.00;;;;;10.45;43.33;102561.47;5061217;28;45310;-58
2022/03/23 04:56:11;;;;;;;;;30.00;25.00;;;;;10.45;43.10;102577.94;5060261;28;46536;-58
2022/03/23 04:58:36;;;;;;;;;23.00;18.00;;;;;10.44;43.43;102571.00;5061223;28;45525;-60
2022/03/23 05:01:02;;;;;;;;;33.00;25.25;;;;;10.44;43.32;102568.41;5060651;28;47041;-60
2022/03/23 05:03:28;;;;;;;;;29.50;24.75;;;;;10.42;43.12;102572.75;5061264;28;45411;-60
2022/03/23 05:05:54;;;;;;;;;21.50;15.75;;;;;10.42;43.21;102572.75;5061028;28;45317;-57
2022/03/23 05:08:19;;;;;;;;;29.25;24.00;;;;;10.42;43.28;102569.28;5061096;28;45304;-58
2022/03/23 05:10:44;;;;;;;;;26.25;22.50;;;;;10.40;43.47;102574.44;5060368;28;46227;-57
2022/03/23 05:13:11;;;;;;;;;34.75;23.75;;;;;10.39;43.32;102572.69;5060930;28;45245;-57
2022/03/23 05:15:37;;;;;;;;;26.25;20.00;;;;;10.38;43.10;102573.56;5060600;28;45245;-56
2022/03/23 05:18:03;;;;;;;;;25.00;22.75;;;;;10.37;43.31;102569.22;5060736;28;45230;-57
2022/03/23 05:20:29;;;;;;;;;30.75;24.00;;;;;10.36;42.87;102572.69;5071019;28;46085;-57
2022/03/23 05:22:54;;;;;;;;;32.00;23.50;;;;;10.35;43.18;102568.38;5060780;28;45324;-57
2022/03/23 05:25:21;;;;;;;;;28.00;23.75;;;;;10.32;43.03;102566.63;5060510;28;45703;-56
2022/03/23 05:27:47;;;;;;;;;28.75;21.00;;;;;10.33;43.28;102581.34;5060771;28;45311;-57
2022/03/23 05:30:13;;;;;;;;;28.25;24.25;;;;;10.31;43.13;102571.81;5059874;28;45319;-57
2022/03/23 05:32:39;;;;;;;;;29.25;24.25;;;;;10.28;43.05;102577.03;5060647;28;45239;-57
2022/03/23 05:35:06;;;;;;;;;27.50;24.00;;;;;10.27;43.34;102572.69;5060323;28;45383;-57
2022/03/23 05:37:31;;;;;;;;;38.00;33.00;;;;;10.27;43.20;102580.47;5060315;28;45498;-56
2022/03/23 05:39:57;;;;;;;;;33.50;27.50;;;;;10.23;43.19;102583.94;5059776;28;45323;-57
2022/03/23 05:42:22;;;;;;;;;34.25;28.00;;;;;10.22;43.26;102588.28;5042441;28;45276;-59
2022/03/23 05:44:48;;;;;;;;;27.75;22.25;;;;;10.21;43.54;102591.72;5060053;28;45373;-57
2022/03/23 05:47:13;;;;;;;;;31.50;28.00;;;;;10.19;43.40;102596.00;5060212;28;45413;-57
2022/03/23 05:49:38;;;;;;;;;26.75;24.50;;;;;10.20;43.34;102589.06;5059702;28;45291;-57
2022/03/23 05:52:04;;;;;;;;;27.00;20.50;;;;;10.19;43.26;102588.19;5059858;28;45349;-57
2022/03/23 05:54:31;;;;;;;;;35.75;29.75;;;;;10.18;43.69;102585.59;5059524;28;45426;-57
2022/03/23 05:56:57;;;;;;;;;27.50;24.50;;;;;10.19;43.76;102589.94;5059977;28;45489;-57
2022/03/23 05:59:23;;;;;;;;;37.25;32.50;;;;;10.18;43.97;102588.19;5059678;28;46858;-56
2022/03/23 06:01:48;;;;;;;;;41.25;35.50;;;;;10.15;43.77;102586.47;5060097;28;45284;-56
2022/03/23 06:04:14;;;;;;;;;39.25;31.50;;;;;10.11;44.31;102578.66;5059798;28;45308;-56
2022/03/23 06:06:39;;;;;;;;;39.50;32.25;;;;;10.13;44.33;102590.78;5059825;28;45210;-56
2022/03/23 06:09:05;;;;;;;;;44.75;38.25;;;;;10.12;44.24;102594.25;5058819;28;46167;-57
2022/03/23 06:11:30;;;;;;;;;35.25;32.00;;;;;10.12;44.94;102588.19;5059562;28;45315;-57
2022/03/23 06:13:57;;;;;;;;;48.67;37.00;;;;;10.10;44.84;102589.91;5059233;28;45158;-58
2022/03/23 06:16:22;;;;;;;;;52.25;37.25;;;;;10.10;45.32;102595.97;5059569;28;45335;-55
2022/03/23 06:18:48;;;;;;;;;46.50;36.25;;;;;10.06;45.37;102592.50;5059404;28;46911;-69
2022/03/23 06:21:13;;;;;;;;;44.50;38.00;;;;;10.09;45.44;102590.78;5032039;28;45369;-57
2022/03/23 06:23:39;;;;;;;;;46.50;39.00;;;;;10.08;46.11;102597.69;5055500;28;45536;-56
2022/03/23 06:26:05;;;;;;;;;51.50;36.50;;;;;10.09;46.00;102598.56;5059130;28;45418;-56
2022/03/23 06:28:31;;;;;;;;;61.50;41.00;;;;;10.11;46.41;102607.22;5058685;28;47058;-56
2022/03/23 06:30:58;;;;;;;;;55.00;40.25;;;;;10.10;46.15;102614.16;5059183;28;45296;-57
2022/03/23 06:33:23;;;;;;;;;56.75;42.50;;;;;10.11;46.43;102618.47;5041564;28;45339;-57
2022/03/23 06:35:49;;;;;;;;;40.50;28.75;;;;;10.14;46.45;102615.03;5059272;28;45434;-60
2022/03/23 06:38:15;;;;;;;;;54.50;41.00;;;;;10.17;46.27;102612.44;5058576;28;46266;-59
2022/03/23 06:40:40;;;;;;;;;55.75;41.50;;;;;10.23;46.44;102618.59;5059033;28;45274;-58
2022/03/23 06:43:06;;;;;;;;;61.50;46.50;;;;;10.27;46.57;102627.25;5059093;28;45241;-60
2022/03/23 06:45:31;;;;;;;;;62.00;45.75;;;;;10.33;46.26;102625.53;5059038;28;45319;-62
2022/03/23 06:47:57;;;;;;;;;54.75;42.25;;;;;10.43;46.25;102636.00;5059161;28;45142;-62
2022/03/23 06:50:23;;;;;;;;;53.00;39.75;;;;;10.50;46.53;102638.59;5041081;28;45221;-60
2022/03/23 06:52:48;;;;;;;;;54.00;41.75;;;;;10.55;46.50;102626.47;5059047;28;45525;-64
2022/03/23 06:55:14;;;;;;;;;59.75;44.00;;;;;10.63;46.24;102635.19;5058668;28;46187;-61
2022/03/23 06:57:39;;;;;;;;;55.50;43.00;;;;;10.71;46.13;102634.31;5057749;28;46995;-61
2022/03/23 07:00:13;;;;;;;;;62.25;44.50;;;;;10.76;46.10;102637.78;5059021;28;45375;-62
2022/03/23 07:02:43;;;;;;;;;55.50;42.75;;;;;10.82;46.30;102645.63;5058819;28;45550;-60
2022/03/23 07:05:09;;;;;;;;;52.00;42.00;;;;;10.90;45.90;102651.69;5058803;28;45351;-61
2022/03/23 07:07:36;;;;;;;;;55.00;40.00;;;;;10.94;45.77;102646.50;5058710;28;46219;-61
2022/03/23 07:10:03;;;;;;;;;60.75;43.25;;;;;11.05;45.60;102648.25;5059024;28;45342;-60
2022/03/23 07:12:29;;;;;;;;;56.50;42.25;;;;;11.12;45.72;102648.25;5037544;28;45461;-59
2022/03/23 07:14:54;;;;;;;;;55.25;40.25;;;;;11.18;45.28;102658.66;5049738;28;45461;-59
2022/03/23 07:17:19;;;;;;;;;54.50;39.75;;;;;11.23;44.93;102648.28;5040139;28;46978;-59
2022/03/23 07:19:45;;;;;;;;;49.00;36.75;;;;;11.32;45.25;102660.41;5049599;28;45404;-61
2022/03/23 07:22:11;;;;;;;;;51.50;39.75;;;;;11.40;45.04;102656.94;5060310;28;45560;-62
2022/03/23 07:24:36;;;;;;;;;49.00;40.00;;;;;11.52;44.80;102663.88;5061940;28;45364;-62
2022/03/23 07:27:02;;;;;;;;;49.25;37.50;;;;;11.57;44.51;102663.00;5061757;28;45261;-61
2022/03/23 07:29:27;;;;;;;;;55.00;39.25;;;;;11.69;44.24;102664.75;5057747;28;45316;-61
2022/03/23 07:31:53;;;;;;;;;52.25;38.50;;;;;11.77;43.90;102662.97;5056013;28;46075;-61
2022/03/23 07:34:21;;;;;;;;;53.50;36.25;;;;;11.88;43.74;102669.09;5062022;28;45259;-58
2022/03/23 07:36:48;;;;;;;;;39.25;31.25;;;;;11.93;43.23;102668.19;5061534;28;46220;-59
2022/03/23 07:39:20;;;;;;;;;51.75;40.50;;;;;11.99;43.51;102676.84;5048636;28;45389;-62
2022/03/23 07:41:50;;;;;;;;;46.75;39.00;;;;;12.12;43.27;102672.50;5060144;28;45481;-63
2022/03/23 07:44:18;;;;;;;;;39.50;34.50;;;;;12.27;42.95;102671.59;5061558;28;45478;-62
2022/03/23 07:46:47;;;;;;;;;51.00;36.75;;;;;12.37;42.86;102670.66;5061833;28;46335;-61
2022/03/23 07:49:14;;;;;;;;;41.50;34.75;;;;;12.47;42.28;102668.03;5061605;28;45810;-60
2022/03/23 07:51:40;;;;;;;;;37.25;32.00;;;;;12.54;41.85;102674.06;5061792;28;45446;-61
2022/03/23 07:54:06;;;;;;;;;73.50;53.75;;;;;12.64;41.63;102675.78;5061626;28;45468;-61
2022/03/23 07:56:32;;;;;;;;;48.25;36.50;;;;;12.77;41.36;102671.34;5061096;28;45303;-61
2022/03/23 07:58:58;;;;;;;;;33.25;29.25;;;;;12.89;40.82;102665.19;5061612;28;45331;-63
2022/03/23 08:01:24;;;;;;;;;40.00;29.50;;;;;12.97;40.57;102669.47;5061290;28;45268;-61
2022/03/23 08:03:49;;;;;;;;;47.00;30.25;;;;;13.05;40.49;102666.81;5061772;28;45252;-60
2022/03/23 08:06:15;;;;;;;;;32.75;28.25;;;;;13.19;40.21;102677.19;5061303;28;46152;-60
2022/03/23 08:08:40;;;;;;;;;35.50;30.50;;;;;13.27;40.10;102681.50;5061614;28;45288;-66
2022/03/23 08:11:06;;;;;;;;;37.25;32.00;;;;;13.36;39.58;102685.75;5061228;28;45287;-61
2022/03/23 08:13:31;;;;;;;;;34.00;30.75;;;;;13.36;39.47;102697.06;5061612;28;45284;-61
2022/03/23 08:15:56;;;;;;;;;36.50;31.00;;;;;13.37;39.28;102696.19;5061054;28;45347;-61
2022/03/23 08:18:22;;;;;;;;;29.50;26.25;;;;;13.40;38.77;102684.84;5061312;28;45221;-65
2022/03/23 08:20:50;;;;;;;;;31.50;27.25;;;;;13.48;38.85;102692.63;5038527;28;45310;-63
2022/03/23 08:23:16;;;;;;;;;34.75;30.00;;;;;13.58;38.84;102694.28;5053928;28;45494;-60
2022/03/23 08:25:43;;;;;;;;;36.25;33.00;;;;;13.65;38.53;102696.84;5060842;28;46194;-60
2022/03/23 08:28:10;;;;;;;;;34.25;29.75;;;;;13.73;38.78;102690.66;5061119;28;45280;-59
2022/03/23 08:30:36;;;;;;;;;33.50;28.25;;;;;13.83;38.29;102694.94;5047111;28;45464;-57
2022/03/23 08:33:03;;;;;;;;;38.75;31.00;;;;;13.93;38.13;102701.78;5061301;28;45215;-59
2022/03/23 08:35:30;;;;;;;;;36.50;30.50;;;;;14.02;38.10;102693.88;5060793;28;46449;-57
2022/03/23 08:37:55;;;;;;;;;35.75;28.25;;;;;14.14;37.90;102690.25;5060847;28;45427;-58
2022/03/23 08:40:21;;;;;;;;;40.50;31.00;;;;;14.27;37.86;102699.69;5060903;28;45414;-58
2022/03/23 08:42:47;;;;;;;;;37.75;30.75;;;;;14.37;37.63;102690.84;5061043;28;45347;-58
2022/03/23 08:45:15;;;;;;;;;42.00;35.50;;;;;14.47;37.22;102699.50;5060576;28;46123;-57
2022/03/23 08:47:41;;;;;;;;;34.75;32.00;;;;;14.59;37.33;102704.56;5060939;28;45224;-58
2022/03/23 08:50:09;;;;;;;;;37.50;31.00;;;;;14.65;36.95;102694.03;5048673;28;45247;-61
2022/03/23 08:52:35;;;;;;;;;33.00;32.00;;;;;14.64;36.41;102704.53;5060593;28;45842;-60
2022/03/23 08:55:04;;;;;;;;;39.00;30.75;;;;;14.67;35.99;102692.25;5060511;28;46224;-64
2022/03/23 08:57:29;;;;;;;;;37.50;30.50;;;;;14.76;36.83;102699.97;5060064;28;45237;-61
2022/03/23 08:59:54;;;;;;;;;34.75;30.00;;;;;14.89;36.36;102696.31;5047617;28;45791;-62
2022/03/23 09:02:20;;;;;;;;;31.50;27.25;;;;;14.97;35.34;102696.19;5060697;28;46138;-61
2022/03/23 09:04:45;;;;;;;;;39.75;31.75;;;;;14.89;35.33;102706.78;5060993;28;46263;-58
2022/03/23 09:07:10;;;;;;;;;25.50;23.75;;;;;14.90;35.33;102699.78;5060563;28;45253;-60
2022/03/23 09:09:36;;;;;;;;;34.00;29.25;;;;;14.96;35.43;102704.06;5060795;28;45403;-60
2022/03/23 09:12:01;;;;;;;;;53.00;35.75;;;;;15.11;35.45;102701.22;5060458;28;45410;-58
2022/03/23 09:14:27;;;;;;;;;42.00;30.75;;;;;15.26;35.43;102703.63;5060567;28;46104;-58
2022/03/23 09:16:52;;;;;;;;;34.00;26.50;;;;;15.36;34.84;102699.94;5060377;28;45233;-61
2022/03/23 09:19:20;;;;;;;;;35.75;31.00;;;;;15.39;34.48;102697.28;5053921;28;45254;-60
2022/03/23 09:21:49;;;;;;;;;39.25;26.75;;;;;15.41;34.68;102702.47;5055100;28;45430;-59
2022/03/23 09:24:15;;;;;;;;;33.00;29.25;;;;;15.49;34.43;102701.50;5060043;28;46378;-59
2022/03/23 09:26:41;;;;;;;;;35.50;26.75;;;;;15.61;34.21;102699.56;5060267;28;45253;-59
2022/03/23 09:29:07;;;;;;;;;31.25;28.25;;;;;15.73;34.38;102694.13;5051743;28;45545;-60
2022/03/23 09:31:33;;;;;;;;;37.25;30.00;;;;;15.85;34.09;102699.16;5054772;28;45293;-58
2022/03/23 09:34:02;;;;;;;;;31.75;26.75;;;;;15.94;34.17;102696.34;5060257;28;46067;-59
2022/03/23 09:39:11;;;;;;;;;33.00;23.75;;;;;16.13;33.29;102699.50;5060450;28;45299;-61
2022/03/23 09:41:37;;;;;;;;;26.75;20.25;;;;;16.20;32.52;102701.09;5059757;28;45522;-61
2022/03/23 09:44:03;;;;;;;;;34.00;27.50;;;;;16.25;32.69;102699.28;5059740;28;45456;-61
2022/03/23 09:46:29;;;;;;;;;30.25;25.75;;;;;16.37;32.69;102708.63;5060147;28;45360;-62
2022/03/23 09:48:54;;;;;;;;;29.25;22.75;;;;;16.50;32.35;102704.88;5060409;28;45196;-62
2022/03/23 09:51:21;;;;;;;;;52.25;41.50;;;;;16.56;32.12;102703.88;5059806;28;45194;-62
2022/03/23 09:53:48;;;;;;;;;27.75;21.00;;;;;16.63;31.97;102711.59;5059832;28;46639;-60
2022/03/23 09:56:13;;;;;;;;;21.50;19.25;;;;;16.62;31.57;102704.63;5058676;28;45682;-60
2022/03/23 09:58:41;;;;;;;;;31.25;27.00;;;;;16.63;32.07;102703.72;5060077;28;45322;-59
2022/03/23 10:01:41;;;;;;;;;27.00;23.75;;;;;16.71;30.98;102707.06;5059436;28;45489;-64
2022/03/23 10:04:12;;;;;;;;;21.75;17.25;;;;;16.76;31.51;102706.09;5020093;28;46118;-59
2022/03/23 10:06:58;;;;;;;;;23.25;19.75;;;;;16.85;31.29;102691.03;5059607;28;45294;-61
2022/03/23 10:09:27;;;;;;;;;23.50;21.75;;;;;16.93;31.26;102704.84;5059488;28;45190;-61
2022/03/23 10:12:29;;;;;;;;;29.00;24.50;;;;;17.03;31.16;102702.88;5060012;28;45228;-60
2022/03/23 10:15:32;;;;;;;;;23.75;21.25;;;;;17.18;30.81;102694.63;5050703;28;47076;-60
2022/03/23 10:18:35;;;;;;;;;22.25;21.75;;;;;17.28;30.99;102690.88;5049665;28;45414;-63
2022/03/23 10:21:01;;;;;;;;;44.75;36.00;;;;;17.50;30.39;102695.59;5048096;28;45426;-59
2022/03/23 10:23:26;;;;;;;;;28.00;24.75;;;;;17.58;30.43;102683.97;5059450;28;45383;-62
2022/03/23 10:25:51;;;;;;;;;30.75;25.50;;;;;17.67;29.83;102684.66;5059249;28;45352;-62
2022/03/23 10:28:18;;;;;;;;;31.50;26.75;;;;;17.78;30.99;102685.25;5059332;28;45334;-63
2022/03/23 10:30:45;;;;;;;;;31.00;24.50;;;;;17.83;30.41;102686.03;5059389;28;45462;-62
2022/03/23 10:33:23;;;;;;;;;25.50;20.75;;;;;17.85;30.26;102684.22;5059191;28;45292;-59
2022/03/23 10:35:50;;;;;;;;;44.75;28.75;;;;;17.85;30.16;102687.72;5049553;28;45348;-59
2022/03/23 10:38:21;;;;;;;;;22.25;19.25;;;;;17.90;30.06;102684.94;5058724;28;45282;-59
2022/03/23 10:40:50;;;;;;;;;28.75;24.75;;;;;17.92;29.92;102677.88;5059101;28;45221;-60
2022/03/23 10:43:19;;;;;;;;;26.50;24.00;;;;;17.90;29.79;102677.06;5058993;28;45555;-58
2022/03/23 10:45:45;;;;;;;;;29.25;24.50;;;;;17.87;29.84;102672.75;5058966;28;45250;-58
2022/03/23 10:48:14;;;;;;;;;26.75;20.75;;;;;17.93;29.56;102671.69;5058884;28;45229;-59
2022/03/23 10:50:54;;;;;;;;;25.75;22.00;;;;;18.02;30.17;102670.56;5059245;28;45347;-60
2022/03/23 10:53:40;;;;;;;;;30.00;21.25;;;;;18.04;29.96;102669.66;5059583;28;45204;-59
2022/03/23 10:56:06;;;;;;;;;29.00;25.00;;;;;18.08;29.98;102665.16;5061441;28;45966;-60
2022/03/23 10:58:32;;;;;;;;;31.75;23.25;;;;;18.05;29.39;102667.88;5062514;28;45245;-60
2022/03/23 11:01:08;;;;;;;;;27.50;21.50;;;;;18.05;29.15;102665.25;5062283;28;45281;-69
2022/03/23 11:03:37;;;;;;;;;18.00;15.00;;;;;18.08;29.77;102662.53;5062363;28;45443;-67
2022/03/23 11:06:03;;;;;;;;;31.75;25.00;;;;;18.07;29.18;102652.91;5062069;28;45488;-68
2022/03/23 11:08:29;;;;;;;;;27.25;24.00;;;;;18.16;29.17;102653.50;5062362;28;45174;-70
2022/03/23 11:16:46;;;;;;;;;26.25;23.00;;;;;18.18;28.03;102658.72;4999912;28;45433;-67
2022/03/23 11:19:14;;;;;;;;;23.75;22.75;;;;;18.14;27.58;102655.31;5055908;28;45483;-76
2022/03/23 11:22:01;;;;;;;;;29.00;26.50;;;;;18.22;27.97;102655.13;5068043;28;45249;-70
2022/03/23 11:24:28;;;;;;;;;29.25;23.50;;;;;18.23;27.31;102657.69;5051417;28;45280;-75
2022/03/23 11:26:55;;;;;;;;;31.50;26.50;;;;;18.22;27.61;102639.31;5061620;28;46201;-75
2022/03/23 11:29:21;;;;;;;;;25.00;23.25;;;;;18.26;28.22;102640.09;5051143;28;45445;-74